sensor_id;sensor_type;location;lat;lon;timestamp;pressure;altitude;pressure_sealevel;temperature;humidity
21109;BME280;10712;52.944;9.098;2022-08-19T00:01:47;101205.13;;;27.01;52.87
21109;BME280;10712;52.944;9.098;2022-08-19T00:04:15;101205.13;;;27.01;52.82
21109;BME280;10712;52.944;9.098;2022-08-19T00:06:43;101215.06;;;27.02;52.69
21109;BME280;10712;52.944;9.098;2022-08-19T00:09:14;101221.56;;;27.01;52.99
21109;BME280;10712;52.944;9.098;2022-08-19T00:11:41;101220.13;;;27.05;52.67
21109;BME280;10712;52.944;9.098;2022-08-19T00:14:09;101219.59;;;27.10;52.36
21109;BME280;10712;52.944;9.098;2022-08-19T00:16:38;101213.81;;;27.05;52.56
21109;BME280;10712;52.944;9.098;2022-08-19T00:19:04;101210.63;;;27.01;52.58
21109;BME280;10712;52.944;9.098;2022-08-19T00:21:30;101210.13;;;26.98;52.95
21109;BME280;10712;52.944;9.098;2022-08-19T00:23:57;101211.47;;;27.02;53.07
21109;BME280;10712;52.944;9.098;2022-08-19T00:26:26;101206.94;;;27.09;52.75
21109;BME280;10712;52.944;9.098;2022-08-19T00:28:52;101215.81;;;27.11;52.58
21109;BME280;10712;52.944;9.098;2022-08-19T00:31:18;101208.66;;;27.10;52.53
21109;BME280;10712;52.944;9.098;2022-08-19T00:33:44;101206.00;;;27.02;52.79
21109;BME280;10712;52.944;9.098;2022-08-19T00:36:10;101195.91;;;27.02;52.86
21109;BME280;10712;52.944;9.098;2022-08-19T00:38:38;101196.38;;;27.06;52.85
21109;BME280;10712;52.944;9.098;2022-08-19T00:41:12;101192.59;;;27.07;52.40
21109;BME280;10712;52.944;9.098;2022-08-19T00:43:38;101186.91;;;26.94;52.57
21109;BME280;10712;52.944;9.098;2022-08-19T00:46:05;101192.75;;;26.91;52.79
21109;BME280;10712;52.944;9.098;2022-08-19T00:48:33;101192.75;;;26.91;52.87
21109;BME280;10712;52.944;9.098;2022-08-19T00:51:00;101198.03;;;26.92;52.97
21109;BME280;10712;52.944;9.098;2022-08-19T00:53:30;101197.53;;;26.89;52.99
21109;BME280;10712;52.944;9.098;2022-08-19T00:56:01;101197.34;;;26.90;53.00
21109;BME280;10712;52.944;9.098;2022-08-19T00:58:32;101196.16;;;26.93;52.91
21109;BME280;10712;52.944;9.098;2022-08-19T01:01:00;101196.88;;;26.87;52.89
21109;BME280;10712;52.944;9.098;2022-08-19T01:03:26;101204.53;;;26.91;52.91
21109;BME280;10712;52.944;9.098;2022-08-19T01:05:54;101197.69;;;26.95;52.87
21109;BME280;10712;52.944;9.098;2022-08-19T01:08:21;101199.19;;;26.98;52.66
21109;BME280;10712;52.944;9.098;2022-08-19T01:10:52;101194.72;;;26.97;52.70
21109;BME280;10712;52.944;9.098;2022-08-19T01:13:27;101182.47;;;26.93;52.86
21109;BME280;10712;52.944;9.098;2022-08-19T01:16:06;101179.75;;;26.93;52.63
21109;BME280;10712;52.944;9.098;2022-08-19T01:18:39;101178.03;;;26.92;52.86
21109;BME280;10712;52.944;9.098;2022-08-19T01:23:56;101175.97;;;26.94;52.61
21109;BME280;10712;52.944;9.098;2022-08-19T01:26:25;101157.88;;;26.93;52.42
21109;BME280;10712;52.944;9.098;2022-08-19T01:28:56;101157.63;;;26.80;52.81
21109;BME280;10712;52.944;9.098;2022-08-19T01:31:28;101154.97;;;26.72;53.09
21109;BME280;10712;52.944;9.098;2022-08-19T01:33:57;101149.88;;;26.69;53.49
21109;BME280;10712;52.944;9.098;2022-08-19T01:36:38;101151.53;;;26.70;53.63
21109;BME280;10712;52.944;9.098;2022-08-19T01:39:09;101150.00;;;26.75;53.62
21109;BME280;10712;52.944;9.098;2022-08-19T01:41:36;101149.13;;;26.75;53.58
21109;BME280;10712;52.944;9.098;2022-08-19T01:44:03;101156.31;;;26.76;53.20
21109;BME280;10712;52.944;9.098;2022-08-19T01:46:30;101154.22;;;26.78;53.42
21109;BME280;10712;52.944;9.098;2022-08-19T01:48:57;101152.50;;;26.77;53.40
21109;BME280;10712;52.944;9.098;2022-08-19T01:51:23;101139.91;;;26.76;53.40
21109;BME280;10712;52.944;9.098;2022-08-19T01:53:50;101129.69;;;26.70;53.53
21109;BME280;10712;52.944;9.098;2022-08-19T01:56:18;101129.69;;;26.70;53.72
21109;BME280;10712;52.944;9.098;2022-08-19T01:58:51;101122.91;;;26.65;53.68
21109;BME280;10712;52.944;9.098;2022-08-19T02:01:19;101120.53;;;26.62;54.01
21109;BME280;10712;52.944;9.098;2022-08-19T02:03:45;101118.84;;;26.61;54.14
21109;BME280;10712;52.944;9.098;2022-08-19T02:06:11;101113.56;;;26.60;54.11
21109;BME280;10712;52.944;9.098;2022-08-19T02:08:38;101124.50;;;26.60;54.49
21109;BME280;10712;52.944;9.098;2022-08-19T02:11:06;101115.44;;;26.59;54.17
21109;BME280;10712;52.944;9.098;2022-08-19T02:13:34;101110.66;;;26.61;54.25
21109;BME280;10712;52.944;9.098;2022-08-19T02:15:59;101110.66;;;26.61;53.96
21109;BME280;10712;52.944;9.098;2022-08-19T02:18:26;101111.34;;;26.55;53.99
21109;BME280;10712;52.944;9.098;2022-08-19T02:20:52;101104.97;;;26.48;54.36
21109;BME280;10712;52.944;9.098;2022-08-19T02:23:18;101095.81;;;26.41;54.69
21109;BME280;10712;52.944;9.098;2022-08-19T02:25:46;101098.53;;;26.41;54.60
21109;BME280;10712;52.944;9.098;2022-08-19T02:28:14;101089.66;;;26.39;54.73
21109;BME280;10712;52.944;9.098;2022-08-19T02:30:41;101087.22;;;26.44;54.68
21109;BME280;10712;52.944;9.098;2022-08-19T02:33:07;101096.56;;;26.50;54.29
21109;BME280;10712;52.944;9.098;2022-08-19T02:35:33;101090.97;;;26.43;54.50
21109;BME280;10712;52.944;9.098;2022-08-19T02:37:59;101098.53;;;26.41;54.61
21109;BME280;10712;52.944;9.098;2022-08-19T02:40:57;101098.22;;;26.36;54.46
21109;BME280;10712;52.944;9.098;2022-08-19T02:43:24;101095.97;;;26.40;54.49
21109;BME280;10712;52.944;9.098;2022-08-19T02:45:52;101100.88;;;26.44;54.42
21109;BME280;10712;52.944;9.098;2022-08-19T02:48:24;101103.59;;;26.44;54.38
21109;BME280;10712;52.944;9.098;2022-08-19T02:50:52;101099.50;;;26.48;54.21
21109;BME280;10712;52.944;9.098;2022-08-19T02:53:26;101101.16;;;26.49;54.00
21109;BME280;10712;52.944;9.098;2022-08-19T02:55:53;101094.75;;;26.42;54.22
21109;BME280;10712;52.944;9.098;2022-08-19T02:58:21;101094.28;;;26.39;54.24
21109;BME280;10712;52.944;9.098;2022-08-19T03:00:54;101097.28;;;26.44;54.36
21109;BME280;10712;52.944;9.098;2022-08-19T03:03:20;101115.22;;;26.46;54.33
21109;BME280;10712;52.944;9.098;2022-08-19T03:05:46;101108.72;;;26.47;54.18
21109;BME280;10712;52.944;9.098;2022-08-19T03:08:13;101117.94;;;26.46;54.15
21109;BME280;10712;52.944;9.098;2022-08-19T03:10:46;101110.09;;;26.43;54.29
21109;BME280;10712;52.944;9.098;2022-08-19T03:13:17;101116.13;;;26.39;54.25
21109;BME280;10712;52.944;9.098;2022-08-19T03:15:46;101113.09;;;26.34;54.25
21109;BME280;10712;52.944;9.098;2022-08-19T03:18:13;101119.41;;;26.34;54.33
21109;BME280;10712;52.944;9.098;2022-08-19T03:20:43;101127.06;;;26.39;54.46
21109;BME280;10712;52.944;9.098;2022-08-19T03:23:09;101130.94;;;26.44;54.37
21109;BME280;10712;52.944;9.098;2022-08-19T03:25:39;101136.69;;;26.49;54.36
21109;BME280;10712;52.944;9.098;2022-08-19T03:28:06;101131.06;;;26.51;54.05
21109;BME280;10712;52.944;9.098;2022-08-19T03:30:33;101135.66;;;26.50;53.96
21109;BME280;10712;52.944;9.098;2022-08-19T03:32:59;101139.44;;;26.49;54.22
21109;BME280;10712;52.944;9.098;2022-08-19T03:35:25;101132.28;;;26.48;54.15
21109;BME280;10712;52.944;9.098;2022-08-19T03:37:51;101142.47;;;26.54;53.92
21109;BME280;10712;52.944;9.098;2022-08-19T03:40:18;101149.25;;;26.58;53.69
21109;BME280;10712;52.944;9.098;2022-08-19T03:42:44;101148.91;;;26.61;53.44
21109;BME280;10712;52.944;9.098;2022-08-19T03:45:12;101155.09;;;26.55;53.55
21109;BME280;10712;52.944;9.098;2022-08-19T03:47:38;101153.41;;;26.54;53.52
21109;BME280;10712;52.944;9.098;2022-08-19T03:50:04;101154.25;;;26.55;53.70
21109;BME280;10712;52.944;9.098;2022-08-19T03:52:30;101158.19;;;26.52;53.43
21109;BME280;10712;52.944;9.098;2022-08-19T03:54:56;101161.28;;;26.49;53.58
21109;BME280;10712;52.944;9.098;2022-08-19T03:57:22;101152.44;;;26.47;53.63
21109;BME280;10712;52.944;9.098;2022-08-19T03:59:48;101150.75;;;26.46;53.41
21109;BME280;10712;52.944;9.098;2022-08-19T04:02:14;101146.13;;;26.47;53.41
21109;BME280;10712;52.944;9.098;2022-08-19T04:04:42;101141.56;;;26.39;53.49
21109;BME280;10712;52.944;9.098;2022-08-19T04:07:11;101141.63;;;26.31;53.71
21109;BME280;10712;52.944;9.098;2022-08-19T04:09:40;101145.38;;;26.30;53.71
21109;BME280;10712;52.944;9.098;2022-08-19T04:12:08;101150.50;;;26.33;53.70
21109;BME280;10712;52.944;9.098;2022-08-19T04:14:34;101151.53;;;26.32;53.75
21109;BME280;10712;52.944;9.098;2022-08-19T04:17:02;101150.28;;;26.35;53.66
21109;BME280;10712;52.944;9.098;2022-08-19T04:19:31;101152.19;;;26.34;53.40
21109;BME280;10712;52.944;9.098;2022-08-19T04:21:57;101145.69;;;26.35;53.17
21109;BME280;10712;52.944;9.098;2022-08-19T04:24:24;101140.97;;;26.21;53.11
21109;BME280;10712;52.944;9.098;2022-08-19T04:26:51;101139.03;;;26.07;53.48
21109;BME280;10712;52.944;9.098;2022-08-19T04:29:22;101133.13;;;25.95;53.72
21109;BME280;10712;52.944;9.098;2022-08-19T04:31:52;101141.47;;;25.94;54.25
21109;BME280;10712;52.944;9.098;2022-08-19T04:34:21;101141.31;;;25.95;54.24
21109;BME280;10712;52.944;9.098;2022-08-19T04:36:49;101143.41;;;25.93;54.24
21109;BME280;10712;52.944;9.098;2022-08-19T04:39:20;101135.38;;;25.92;54.20
21109;BME280;10712;52.944;9.098;2022-08-19T04:41:46;101134.03;;;25.87;54.29
21109;BME280;10712;52.944;9.098;2022-08-19T04:44:33;101144.94;;;25.87;54.37
21109;BME280;10712;52.944;9.098;2022-08-19T04:47:00;101145.44;;;25.91;54.42
21109;BME280;10712;52.944;9.098;2022-08-19T04:49:27;101143.41;;;25.93;54.31
21109;BME280;10712;52.944;9.098;2022-08-19T04:51:55;101147.63;;;25.96;54.01
21109;BME280;10712;52.944;9.098;2022-08-19T04:54:24;101143.56;;;25.92;53.75
21109;BME280;10712;52.944;9.098;2022-08-19T04:56:52;101134.03;;;25.87;53.91
21109;BME280;10712;52.944;9.098;2022-08-19T04:59:20;101141.06;;;25.82;54.18
21109;BME280;10712;52.944;9.098;2022-08-19T05:01:47;101143.94;;;25.80;54.54
21109;BME280;10712;52.944;9.098;2022-08-19T05:04:19;101157.94;;;25.85;54.23
21109;BME280;10712;52.944;9.098;2022-08-19T05:06:49;101165.75;;;25.88;54.22
21109;BME280;10712;52.944;9.098;2022-08-19T05:09:16;101160.97;;;25.91;54.00
21109;BME280;10712;52.944;9.098;2022-08-19T05:11:43;101165.75;;;25.88;53.88
21109;BME280;10712;52.944;9.098;2022-08-19T05:14:11;101170.19;;;25.89;54.04
21109;BME280;10712;52.944;9.098;2022-08-19T05:16:39;101166.06;;;25.94;53.58
21109;BME280;10712;52.944;9.098;2022-08-19T05:19:06;101163.75;;;25.82;53.84
21109;BME280;10712;52.944;9.098;2022-08-19T05:21:50;101155.59;;;25.74;54.32
21109;BME280;10712;52.944;9.098;2022-08-19T05:24:36;101154.59;;;25.67;54.49
21109;BME280;10712;52.944;9.098;2022-08-19T05:27:02;101163.94;;;25.73;54.46
21109;BME280;10712;52.944;9.098;2022-08-19T05:29:30;101158.19;;;25.68;54.59
21109;BME280;10712;52.944;9.098;2022-08-19T05:32:02;101159.03;;;25.68;54.66
21109;BME280;10712;52.944;9.098;2022-08-19T05:34:28;101159.34;;;25.73;54.83
21109;BME280;10712;52.944;9.098;2022-08-19T05:36:58;101160.69;;;25.77;54.64
21109;BME280;10712;52.944;9.098;2022-08-19T05:39:28;101146.53;;;25.74;54.42
21109;BME280;10712;52.944;9.098;2022-08-19T05:42:01;101155.59;;;25.74;54.56
21109;BME280;10712;52.944;9.098;2022-08-19T05:44:30;101150.50;;;25.71;54.41
21109;BME280;10712;52.944;9.098;2022-08-19T05:46:58;101153.88;;;25.73;54.72
21109;BME280;10712;52.944;9.098;2022-08-19T05:49:26;101155.75;;;25.73;54.93
21109;BME280;10712;52.944;9.098;2022-08-19T05:51:53;101161.34;;;25.79;54.94
21109;BME280;10712;52.944;9.098;2022-08-19T05:54:22;101153.81;;;25.89;54.50
21109;BME280;10712;52.944;9.098;2022-08-19T05:56:50;101158.59;;;25.87;54.45
21109;BME280;10712;52.944;9.098;2022-08-19T05:59:18;101160.16;;;25.82;54.60
21109;BME280;10712;52.944;9.098;2022-08-19T06:01:47;101159.47;;;25.80;54.63
21109;BME280;10712;52.944;9.098;2022-08-19T06:04:19;101169.88;;;25.84;54.67
21109;BME280;10712;52.944;9.098;2022-08-19T06:06:51;101174.44;;;25.92;54.53
21109;BME280;10712;52.944;9.098;2022-08-19T06:09:18;101169.84;;;25.93;54.62
21109;BME280;10712;52.944;9.098;2022-08-19T06:11:58;101168.13;;;25.92;54.63
21109;BME280;10712;52.944;9.098;2022-08-19T06:14:30;101169.28;;;25.97;54.59
21109;BME280;10712;52.944;9.098;2022-08-19T06:16:57;101173.00;;;26.04;54.61
21109;BME280;10712;52.944;9.098;2022-08-19T06:19:28;101176.44;;;26.06;54.44
21109;BME280;10712;52.944;9.098;2022-08-19T06:21:59;101177.28;;;26.07;54.31
21109;BME280;10712;52.944;9.098;2022-08-19T06:24:28;101176.56;;;26.13;54.42
21109;BME280;10712;52.944;9.098;2022-08-19T06:26:57;101176.19;;;26.16;54.47
21109;BME280;10712;52.944;9.098;2022-08-19T06:29:25;101165.25;;;26.16;54.24
21109;BME280;10712;52.944;9.098;2022-08-19T06:31:56;101172.41;;;26.17;54.15
21109;BME280;10712;52.944;9.098;2022-08-19T06:34:24;101174.13;;;26.18;54.10
21109;BME280;10712;52.944;9.098;2022-08-19T06:36:51;101181.47;;;26.17;54.30
21109;BME280;10712;52.944;9.098;2022-08-19T06:39:28;101175.84;;;26.19;54.43
21109;BME280;10712;52.944;9.098;2022-08-19T06:41:58;101195.25;;;26.24;54.23
21109;BME280;10712;52.944;9.098;2022-08-19T06:44:30;101192.84;;;26.29;54.20
21109;BME280;10712;52.944;9.098;2022-08-19T06:47:03;101197.97;;;26.32;54.24
21109;BME280;10712;52.944;9.098;2022-08-19T06:49:30;101196.75;;;26.35;53.88
21109;BME280;10712;52.944;9.098;2022-08-19T06:51:59;101195.19;;;26.40;54.07
21109;BME280;10712;52.944;9.098;2022-08-19T06:54:27;101187.28;;;26.45;54.14
21109;BME280;10712;52.944;9.098;2022-08-19T06:57:00;101194.94;;;26.50;53.97
21109;BME280;10712;52.944;9.098;2022-08-19T06:59:31;101193.34;;;26.55;53.99
21109;BME280;10712;52.944;9.098;2022-08-19T07:02:03;101196.88;;;26.64;53.61
21109;BME280;10712;52.944;9.098;2022-08-19T07:04:35;101189.47;;;26.73;53.78
21109;BME280;10712;52.944;9.098;2022-08-19T07:07:07;101191.47;;;26.79;53.60
21109;BME280;10712;52.944;9.098;2022-08-19T07:09:39;101191.75;;;26.84;53.45
21109;BME280;10712;52.944;9.098;2022-08-19T07:12:09;101204.53;;;26.91;52.80
21109;BME280;10712;52.944;9.098;2022-08-19T07:14:37;101205.50;;;26.76;53.32
21109;BME280;10712;52.944;9.098;2022-08-19T07:17:10;101208.94;;;26.70;53.43
21109;BME280;10712;52.944;9.098;2022-08-19T07:19:38;101210.25;;;26.82;53.15
21109;BME280;10712;52.944;9.098;2022-08-19T07:22:06;101214.47;;;26.84;51.99
21109;BME280;10712;52.944;9.098;2022-08-19T07:24:34;101216.81;;;26.95;51.73
21109;BME280;10712;52.944;9.098;2022-08-19T07:27:03;101219.00;;;27.00;51.43
21109;BME280;10712;52.944;9.098;2022-08-19T07:29:33;101222.41;;;27.02;51.56
21109;BME280;10712;52.944;9.098;2022-08-19T07:32:01;101219.50;;;27.03;51.37
21109;BME280;10712;52.944;9.098;2022-08-19T07:34:30;101224.09;;;27.03;51.14
21109;BME280;10712;52.944;9.098;2022-08-19T07:36:56;101228.91;;;27.01;51.10
21109;BME280;10712;52.944;9.098;2022-08-19T07:39:30;101237.97;;;27.01;51.03
21109;BME280;10712;52.944;9.098;2022-08-19T07:41:59;101237.00;;;26.94;50.32
21109;BME280;10712;52.944;9.098;2022-08-19T07:44:25;101251.69;;;27.16;49.90
21109;BME280;10712;52.944;9.098;2022-08-19T07:46:55;101247.31;;;27.07;49.86
21109;BME280;10712;52.944;9.098;2022-08-19T07:49:23;101252.66;;;27.00;49.80
21109;BME280;10712;52.944;9.098;2022-08-19T07:51:57;101249.75;;;27.02;49.54
21109;BME280;10712;52.944;9.098;2022-08-19T07:54:27;101251.00;;;27.14;49.52
21109;BME280;10712;52.944;9.098;2022-08-19T07:56:54;101257.16;;;27.16;49.52
21109;BME280;10712;52.944;9.098;2022-08-19T07:59:23;101253.38;;;27.17;49.64
21109;BME280;10712;52.944;9.098;2022-08-19T08:01:50;101257.16;;;27.16;49.42
21109;BME280;10712;52.944;9.098;2022-08-19T08:04:18;101261.50;;;27.25;49.54
21109;BME280;10712;52.944;9.098;2022-08-19T08:07:04;101259.81;;;27.24;49.33
21109;BME280;10712;52.944;9.098;2022-08-19T08:09:50;101261.63;;;27.47;49.60
21109;BME280;10712;52.944;9.098;2022-08-19T08:12:33;101259.63;;;27.40;49.64
21109;BME280;10712;52.944;9.098;2022-08-19T08:15:06;101267.41;;;27.52;48.51
21109;BME280;10712;52.944;9.098;2022-08-19T08:17:33;101281.78;;;27.54;47.94
21109;BME280;10712;52.944;9.098;2022-08-19T08:19:59;101279.72;;;27.56;48.07
21109;BME280;10712;52.944;9.098;2022-08-19T08:22:25;101276.97;;;27.56;48.06
21109;BME280;10712;52.944;9.098;2022-08-19T08:25:18;101276.03;;;27.63;47.44
21109;BME280;10712;52.944;9.098;2022-08-19T08:27:46;101266.13;;;27.39;47.84
21109;BME280;10712;52.944;9.098;2022-08-19T08:30:19;101264.34;;;27.47;47.11
21109;BME280;10712;52.944;9.098;2022-08-19T08:32:51;101273.13;;;27.65;46.59
21109;BME280;10712;52.944;9.098;2022-08-19T08:35:22;101270.22;;;27.43;46.68
21109;BME280;10712;52.944;9.098;2022-08-19T08:37:52;101268.75;;;27.56;46.79
21109;BME280;10712;52.944;9.098;2022-08-19T08:40:49;101273.03;;;27.58;47.29
21109;BME280;10712;52.944;9.098;2022-08-19T08:43:29;101287.09;;;27.70;47.31
21109;BME280;10712;52.944;9.098;2022-08-19T08:46:08;101279.22;;;27.67;46.41
21109;BME280;10712;52.944;9.098;2022-08-19T08:51:29;101287.28;;;27.83;45.68
21109;BME280;10712;52.944;9.098;2022-08-19T08:54:02;101290.84;;;27.69;46.26
21109;BME280;10712;52.944;9.098;2022-08-19T08:56:30;101290.78;;;27.92;45.40
21109;BME280;10712;52.944;9.098;2022-08-19T08:59:05;101284.63;;;27.75;46.25
21109;BME280;10712;52.944;9.098;2022-08-19T09:01:34;101282.06;;;27.73;46.70
21109;BME280;10712;52.944;9.098;2022-08-19T09:04:05;101280.19;;;27.89;46.02
21109;BME280;10712;52.944;9.098;2022-08-19T09:09:46;101280.28;;;27.95;46.10
21109;BME280;10712;52.944;9.098;2022-08-19T09:12:59;101277.53;;;28.10;45.45
21109;BME280;10712;52.944;9.098;2022-08-19T09:15:42;101262.72;;;28.19;45.68
21109;BME280;10712;52.944;9.098;2022-08-19T09:18:11;101262.28;;;28.37;45.56
21109;BME280;10712;52.944;9.098;2022-08-19T09:20:37;101253.22;;;28.36;45.79
21109;BME280;10712;52.944;9.098;2022-08-19T09:23:03;101251.22;;;28.45;46.32
21109;BME280;10712;52.944;9.098;2022-08-19T09:25:29;101252.41;;;28.57;46.28
21109;BME280;10712;52.944;9.098;2022-08-19T09:27:57;101253.59;;;28.48;44.55
21109;BME280;10712;52.944;9.098;2022-08-19T09:30:32;101252.81;;;28.54;44.92
21109;BME280;10712;52.944;9.098;2022-08-19T09:32:59;101255.59;;;28.75;44.36
21109;BME280;10712;52.944;9.098;2022-08-19T09:35:28;101257.94;;;28.78;44.33
21109;BME280;10712;52.944;9.098;2022-08-19T09:37:56;101271.28;;;28.67;43.63
21109;BME280;10712;52.944;9.098;2022-08-19T09:40:23;101259.53;;;28.73;43.54
21109;BME280;10712;52.944;9.098;2022-08-19T09:42:49;101265.38;;;28.84;43.59
21109;BME280;10712;52.944;9.098;2022-08-19T09:45:17;101263.28;;;28.86;43.56
21109;BME280;10712;52.944;9.098;2022-08-19T09:47:47;101263.28;;;29.08;43.67
21109;BME280;10712;52.944;9.098;2022-08-19T09:50:14;101258.94;;;29.20;43.63
21109;BME280;10712;52.944;9.098;2022-08-19T09:52:40;101261.78;;;29.33;43.60
21109;BME280;10712;52.944;9.098;2022-08-19T09:55:10;101261.69;;;29.41;44.04
21109;BME280;10712;52.944;9.098;2022-08-19T09:57:37;101258.78;;;29.49;43.66
21109;BME280;10712;52.944;9.098;2022-08-19T10:00:05;101258.19;;;29.54;43.87
21109;BME280;10712;52.944;9.098;2022-08-19T10:02:34;101251.84;;;29.53;42.30
21109;BME280;10712;52.944;9.098;2022-08-19T10:05:00;101252.09;;;29.58;42.43
21109;BME280;10712;52.944;9.098;2022-08-19T10:07:45;101249.63;;;29.70;42.65
21109;BME280;10712;52.944;9.098;2022-08-19T10:10:11;101250.06;;;29.73;42.31
21109;BME280;10712;52.944;9.098;2022-08-19T10:12:37;101242.47;;;29.75;41.04
21109;BME280;10712;52.944;9.098;2022-08-19T10:15:05;101238.69;;;29.76;41.72
21109;BME280;10712;52.944;9.098;2022-08-19T10:17:32;101236.16;;;29.82;41.63
21109;BME280;10712;52.944;9.098;2022-08-19T10:20:01;101236.56;;;29.72;41.02
21109;BME280;10712;52.944;9.098;2022-08-19T10:22:30;101236.13;;;29.75;41.45
21109;BME280;10712;52.944;9.098;2022-08-19T10:24:56;101229.56;;;29.69;41.21
21109;BME280;10712;52.944;9.098;2022-08-19T10:27:22;101233.69;;;29.87;41.88
21109;BME280;10712;52.944;9.098;2022-08-19T10:29:48;101242.25;;;30.05;41.60
21109;BME280;10712;52.944;9.098;2022-08-19T10:32:14;101245.81;;;29.99;40.78
21109;BME280;10712;52.944;9.098;2022-08-19T10:34:44;101250.25;;;30.00;40.47
21109;BME280;10712;52.944;9.098;2022-08-19T10:37:09;101239.50;;;30.05;40.30
21109;BME280;10712;52.944;9.098;2022-08-19T10:39:36;101244.00;;;30.19;41.09
21109;BME280;10712;52.944;9.098;2022-08-19T10:42:08;101246.38;;;30.35;40.39
21109;BME280;10712;52.944;9.098;2022-08-19T10:44:36;101240.91;;;30.42;40.78
21109;BME280;10712;52.944;9.098;2022-08-19T10:47:03;101238.63;;;30.52;40.40
21109;BME280;10712;52.944;9.098;2022-08-19T10:49:30;101233.13;;;30.59;40.60
21109;BME280;10712;52.944;9.098;2022-08-19T10:51:57;101222.97;;;30.59;39.81
21109;BME280;10712;52.944;9.098;2022-08-19T10:54:42;101216.66;;;30.72;40.55
21109;BME280;10712;52.944;9.098;2022-08-19T10:57:30;101210.75;;;30.88;40.39
21109;BME280;10712;52.944;9.098;2022-08-19T10:59:56;101219.25;;;31.06;39.92
21109;BME280;10712;52.944;9.098;2022-08-19T11:02:22;101215.88;;;31.17;39.52
21109;BME280;10712;52.944;9.098;2022-08-19T11:04:48;101214.56;;;31.20;39.47
21109;BME280;10712;52.944;9.098;2022-08-19T11:07:17;101200.19;;;31.24;39.12
21109;BME280;10712;52.944;9.098;2022-08-19T11:09:43;101206.53;;;31.32;39.21
21109;BME280;10712;52.944;9.098;2022-08-19T11:12:10;101203.97;;;31.37;38.78
21109;BME280;10712;52.944;9.098;2022-08-19T11:14:36;101203.56;;;31.26;38.24
21109;BME280;10712;52.944;9.098;2022-08-19T11:17:05;101208.63;;;31.43;38.27
21109;BME280;10712;52.944;9.098;2022-08-19T11:19:31;101209.03;;;31.53;37.91
21109;BME280;10712;52.944;9.098;2022-08-19T11:21:57;101206.03;;;31.54;37.50
21109;BME280;10712;52.944;9.098;2022-08-19T11:24:29;101201.38;;;31.68;36.94
21109;BME280;10712;52.944;9.098;2022-08-19T11:27:06;101198.38;;;31.76;37.42
21109;BME280;10712;52.944;9.098;2022-08-19T11:29:33;101200.53;;;31.54;35.91
21109;BME280;10712;52.944;9.098;2022-08-19T11:32:08;101203.47;;;31.79;35.89
21109;BME280;10712;52.944;9.098;2022-08-19T11:34:41;101196.13;;;31.60;36.38
21109;BME280;10712;52.944;9.098;2022-08-19T11:37:07;101186.78;;;31.61;36.82
21109;BME280;10712;52.944;9.098;2022-08-19T11:39:36;101188.66;;;31.80;36.11
21109;BME280;10712;52.944;9.098;2022-08-19T11:42:04;101182.00;;;31.94;35.89
21109;BME280;10712;52.944;9.098;2022-08-19T11:44:51;101186.00;;;31.98;35.83
21109;BME280;10712;52.944;9.098;2022-08-19T11:47:17;101179.28;;;31.81;35.06
21109;BME280;10712;52.944;9.098;2022-08-19T11:49:43;101180.31;;;31.93;35.03
21109;BME280;10712;52.944;9.098;2022-08-19T11:52:10;101167.69;;;32.17;34.98
21109;BME280;10712;52.944;9.098;2022-08-19T11:54:36;101158.69;;;32.35;35.37
21109;BME280;10712;52.944;9.098;2022-08-19T11:57:04;101165.88;;;32.42;35.66
21109;BME280;10712;52.944;9.098;2022-08-19T11:59:30;101171.47;;;32.23;35.15
21109;BME280;10712;52.944;9.098;2022-08-19T12:01:55;101158.88;;;32.40;35.50
21109;BME280;10712;52.944;9.098;2022-08-19T12:04:23;101158.22;;;32.38;34.55
21109;BME280;10712;52.944;9.098;2022-08-19T12:06:49;101154.31;;;32.52;35.07
21109;BME280;10712;52.944;9.098;2022-08-19T12:09:15;101165.72;;;32.62;35.08
21109;BME280;10712;52.944;9.098;2022-08-19T12:11:43;101161.63;;;32.71;34.78
21109;BME280;10712;52.944;9.098;2022-08-19T12:14:11;101157.53;;;32.80;34.24
21109;BME280;10712;52.944;9.098;2022-08-19T12:16:42;101166.38;;;32.89;34.25
21109;BME280;10712;52.944;9.098;2022-08-19T12:19:10;101159.84;;;32.52;32.91
21109;BME280;10712;52.944;9.098;2022-08-19T12:21:36;101160.97;;;32.76;33.01
21109;BME280;10712;52.944;9.098;2022-08-19T12:24:04;101153.91;;;32.80;33.26
21109;BME280;10712;52.944;9.098;2022-08-19T12:26:31;101152.13;;;32.67;32.72
21109;BME280;10712;52.944;9.098;2022-08-19T12:28:58;101149.09;;;32.75;32.32
21109;BME280;10712;52.944;9.098;2022-08-19T12:31:27;101148.56;;;32.85;32.79
21109;BME280;10712;52.944;9.098;2022-08-19T12:33:53;101143.75;;;32.99;32.59
21109;BME280;10712;52.944;9.098;2022-08-19T12:36:19;101146.84;;;32.91;32.67
21109;BME280;10712;52.944;9.098;2022-08-19T12:38:47;101141.69;;;32.94;32.97
21109;BME280;10712;52.944;9.098;2022-08-19T12:41:16;101151.44;;;32.97;32.39
21109;BME280;10712;52.944;9.098;2022-08-19T12:43:44;101141.19;;;33.04;32.50
21109;BME280;10712;52.944;9.098;2022-08-19T12:46:11;101137.09;;;33.31;32.95
21109;BME280;10712;52.944;9.098;2022-08-19T12:48:38;101139.78;;;32.95;31.79
21109;BME280;10712;52.944;9.098;2022-08-19T12:51:11;101138.13;;;33.12;32.62
21109;BME280;10712;52.944;9.098;2022-08-19T12:53:38;101138.28;;;33.17;32.82
21109;BME280;10712;52.944;9.098;2022-08-19T12:56:04;101131.59;;;33.31;32.52
21109;BME280;10712;52.944;9.098;2022-08-19T12:58:31;101128.88;;;33.43;32.58
21109;BME280;10712;52.944;9.098;2022-08-19T13:00:57;101130.81;;;33.42;32.07
21109;BME280;10712;52.944;9.098;2022-08-19T13:03:23;101128.13;;;33.36;32.31
21109;BME280;10712;52.944;9.098;2022-08-19T13:05:55;101124.44;;;33.23;31.57
21109;BME280;10712;52.944;9.098;2022-08-19T13:08:21;101123.63;;;32.98;31.67
21109;BME280;10712;52.944;9.098;2022-08-19T13:10:47;101119.53;;;33.01;32.54